Time;durP1;ratioP1;P1;durP2;ratioP2;P2;SDS_P1;SDS_P2;PMS_P1;PMS_P2;Temp;Humidity;BMP_temperature;BMP_pressure;BME280_temperature;BME280_humidity;BME280_pressure;Samples;Min_cycle;Max_cycle;Signal;HPM_P1;HPM_P2
2022/04/30 00:01:32;;;;;;;4.07;1.15;;;;;;;11.80;52.16;102104.59;5124266;28;20035;-78
2022/04/30 00:04:03;;;;;;;0.95;0.73;;;;;;;11.74;51.77;102116.91;5105401;28;20081;-79
2022/04/30 00:06:33;;;;;;;0.60;0.60;;;;;;;11.74;51.93;102122.16;5096953;28;20104;-80
2022/04/30 00:09:04;;;;;;;1.67;1.58;;;;;;;11.64;52.51;102111.72;5128785;28;20027;-80
2022/04/30 00:11:34;;;;;;;0.60;0.60;;;;;;;11.58;52.37;102118.78;5111979;28;20346;-81
2022/04/30 00:14:05;;;;;;;0.50;0.50;;;;;;;11.40;52.88;102117.19;5107750;28;20128;-80
2022/04/30 00:16:35;;;;;;;0.88;0.88;;;;;;;11.55;52.62;102106.56;5113498;28;20375;-81
2022/04/30 00:19:11;;;;;;;0.80;0.80;;;;;;;11.56;52.57;102112.69;5146698;28;20108;-80
2022/04/30 00:21:44;;;;;;;0.55;0.55;;;;;;;11.64;52.82;102116.13;5131202;28;20030;-80
2022/04/30 00:24:15;;;;;;;1.27;0.93;;;;;;;11.59;52.72;102117.91;5128698;28;20057;-81
2022/04/30 00:26:46;;;;;;;0.82;0.82;;;;;;;11.44;52.94;102111.06;5112070;28;20034;-80
2022/04/30 00:29:17;;;;;;;1.25;1.23;;;;;;;11.57;53.46;102112.69;5112309;28;20453;-80
2022/04/30 00:31:48;;;;;;;0.60;0.60;;;;;;;11.47;53.11;102111.91;5112191;28;20030;-80
2022/04/30 00:34:18;;;;;;;1.08;1.05;;;;;;;11.38;53.93;102111.97;5112183;28;20061;-80
2022/04/30 00:36:49;;;;;;;0.50;0.50;;;;;;;11.48;52.92;102113.66;5113029;28;20034;-80
2022/04/30 00:39:19;;;;;;;2.03;1.00;;;;;;;11.54;52.92;102106.59;5115213;28;20043;-80
2022/04/30 00:41:50;;;;;;;0.40;0.40;;;;;;;11.54;52.32;102111.84;5147759;28;20541;-80
2022/04/30 00:44:21;;;;;;;2.70;0.90;;;;;;;11.49;52.72;102106.63;5145695;28;20476;-80
2022/04/30 00:46:51;;;;;;;0.43;0.43;;;;;;;11.48;52.42;102104.88;5134094;28;20022;-79
2022/04/30 00:49:22;;;;;;;0.73;0.73;;;;;;;11.49;52.94;102104.84;5133123;28;20046;-80
2022/04/30 00:51:58;;;;;;;2.22;2.05;;;;;;;11.36;54.01;102099.72;5117031;28;20421;-80
2022/04/30 00:54:35;;;;;;;0.73;0.73;;;;;;;11.45;52.65;102099.63;5139145;28;20374;-80
2022/04/30 00:57:09;;;;;;;0.75;0.50;;;;;;;11.28;53.72;102095.38;5161127;28;20084;-83
2022/04/30 00:59:43;;;;;;;1.55;1.27;;;;;;;11.26;53.39;102099.81;5155726;28;20048;-83
2022/04/30 01:02:14;;;;;;;0.40;0.40;;;;;;;11.16;53.42;102104.22;5136330;28;20078;-83
2022/04/30 01:04:48;;;;;;;2.75;1.35;;;;;;;11.38;53.04;102103.19;5177828;28;20038;-82
2022/04/30 01:07:20;;;;;;;1.15;1.05;;;;;;;11.27;53.37;102105.91;5137301;28;20018;-83
2022/04/30 01:09:53;;;;;;;0.43;0.43;;;;;;;11.18;52.95;102102.47;5127591;28;20129;-80
2022/04/30 01:12:25;;;;;;;1.38;1.27;;;;;;;11.13;53.58;102100.75;5141196;28;20042;-83
2022/04/30 01:14:57;;;;;;;0.50;0.50;;;;;;;11.20;52.94;102105.09;5127318;28;20041;-81
2022/04/30 01:17:27;;;;;;;0.60;0.60;;;;;;;10.94;53.80;102103.53;5144314;28;20041;-83
2022/04/30 01:19:59;;;;;;;0.70;0.70;;;;;;;10.95;53.56;102101.78;5141541;28;20042;-82
2022/04/30 01:22:34;;;;;;;0.52;0.52;;;;;;;10.71;54.45;102101.03;5153074;28;20039;-81
2022/04/30 01:25:06;;;;;;;0.80;0.77;;;;;;;10.77;54.52;102093.13;5132082;28;20066;-82
2022/04/30 01:27:37;;;;;;;0.98;0.95;;;;;;;10.80;54.08;102095.75;5135469;28;20446;-80
2022/04/30 01:30:10;;;;;;;1.98;0.82;;;;;;;10.82;54.10;102087.84;5149261;28;20034;-80
2022/04/30 01:38:20;;;;;;;0.50;0.50;;;;;;;10.73;54.18;102094.03;5144329;28;20502;-81
2022/04/30 01:40:51;;;;;;;1.25;1.25;;;;;;;10.75;53.52;102091.38;5139222;28;20042;-82
2022/04/30 01:43:22;;;;;;;0.73;0.73;;;;;;;10.73;53.94;102083.53;5115424;28;20105;-81
2022/04/30 01:45:54;;;;;;;2.30;1.25;;;;;;;10.66;53.83;102080.06;5135814;28;20081;-79
2022/04/30 01:48:25;;;;;;;4.18;1.17;;;;;;;10.63;54.49;102071.34;5150272;28;20372;-80
2022/04/30 01:50:56;;;;;;;2.65;1.75;;;;;;;10.56;54.71;102075.75;5133789;28;20022;-80
2022/04/30 01:53:26;;;;;;;0.30;0.30;;;;;;;10.74;54.37;102076.53;5116839;28;20098;-82
2022/04/30 01:55:59;;;;;;;0.77;0.77;;;;;;;10.55;54.80;102079.25;5122477;28;20038;-80
2022/04/30 01:58:30;;;;;;;0.85;0.68;;;;;;;10.50;54.48;102079.25;5135223;28;20124;-81
2022/04/30 02:01:07;;;;;;;0.40;0.40;;;;;;;10.55;54.28;102068.75;5136128;28;20344;-82
2022/04/30 02:03:38;;;;;;;0.32;0.32;;;;;;;10.46;54.07;102064.44;5120206;28;20038;-80
2022/04/30 02:06:09;;;;;;;0.50;0.50;;;;;;;10.48;53.94;102073.16;5119471;28;20042;-81
2022/04/30 02:08:40;;;;;;;1.55;1.45;;;;;;;10.46;53.74;102063.53;5151007;28;20069;-80
2022/04/30 02:11:11;;;;;;;1.55;1.10;;;;;;;10.48;53.86;102051.28;5135063;28;20052;-81
2022/04/30 02:13:52;;;;;;;0.57;0.57;;;;;;;10.38;54.26;102059.19;5134624;28;20034;-80
2022/04/30 02:16:23;;;;;;;0.55;0.55;;;;;;;10.35;54.94;102063.56;5129373;28;20030;-81
2022/04/30 02:18:56;;;;;;;0.43;0.43;;;;;;;10.33;54.09;102052.22;5133912;28;20462;-81
2022/04/30 02:21:30;;;;;;;1.40;1.25;;;;;;;10.35;54.54;102066.19;5132777;28;20038;-83
2022/04/30 02:24:05;;;;;;;0.30;0.30;;;;;;;10.34;54.00;102056.56;5137541;28;20093;-82
2022/04/30 02:26:35;;;;;;;0.95;0.95;;;;;;;10.28;55.16;102057.50;5122160;28;20084;-81
2022/04/30 02:29:07;;;;;;;0.82;0.82;;;;;;;10.35;54.60;102060.94;5130394;28;20455;-82
2022/04/30 02:31:38;;;;;;;0.63;0.63;;;;;;;10.16;55.26;102061.03;5121740;28;20031;-82
2022/04/30 02:34:08;;;;;;;0.63;0.63;;;;;;;10.32;54.05;102060.97;5155122;28;20049;-82
2022/04/30 02:36:41;;;;;;;0.40;0.40;;;;;;;10.27;54.24;102053.13;5125032;28;20034;-81
2022/04/30 02:39:11;;;;;;;1.33;1.27;;;;;;;10.17;55.18;102054.03;5140111;28;20034;-82
2022/04/30 02:41:46;;;;;;;0.70;0.70;;;;;;;10.17;54.89;102059.28;5139436;28;20022;-83
2022/04/30 02:44:17;;;;;;;0.57;0.57;;;;;;;10.12;55.11;102053.19;5154352;28;20038;-83
2022/04/30 02:46:47;;;;;;;2.85;1.58;;;;;;;10.02;54.96;102060.19;5147170;28;20034;-83
2022/04/30 02:49:19;;;;;;;0.40;0.40;;;;;;;10.07;55.66;102061.94;5154728;28;20521;-83
2022/04/30 02:51:49;;;;;;;0.30;0.30;;;;;;;9.95;55.85;102064.59;5137416;28;20420;-82
2022/04/30 02:54:20;;;;;;;0.30;0.30;;;;;;;10.06;54.80;102060.19;5120646;28;20038;-82
2022/04/30 02:56:50;;;;;;;1.23;1.13;;;;;;;10.07;55.07;102056.69;5121522;28;20125;-82
2022/04/30 03:02:10;;;;;;;0.75;0.75;;;;;;;10.10;54.90;102052.31;5128816;28;20039;-83
2022/04/30 03:04:41;;;;;;;3.95;2.05;;;;;;;10.14;54.74;102056.66;5131350;28;20041;-81
2022/04/30 03:07:11;;;;;;;15.70;1.30;;;;;;;10.04;55.17;102050.56;5125472;28;20019;-84
2022/04/30 03:09:42;;;;;;;0.40;0.40;;;;;;;10.08;54.86;102053.19;5136644;28;20259;-83
2022/04/30 03:12:16;;;;;;;0.47;0.47;;;;;;;9.95;54.73;102050.59;5121199;28;20026;-82
2022/04/30 03:14:47;;;;;;;0.65;0.65;;;;;;;9.80;55.45;102052.41;5156466;28;20494;-82
2022/04/30 03:22:58;;;;;;;0.50;0.50;;;;;;;9.73;55.14;102050.69;5151005;28;20029;-81
2022/04/30 03:25:32;;;;;;;0.45;0.45;;;;;;;9.69;57.00;102048.91;5136463;28;20026;-82
2022/04/30 03:28:03;;;;;;;1.00;1.00;;;;;;;9.65;55.15;102058.53;5123452;28;20026;-81
2022/04/30 03:30:43;;;;;;;0.60;0.60;;;;;;;9.59;55.73;102043.69;5153517;28;20032;-82
2022/04/30 03:33:13;;;;;;;0.50;0.50;;;;;;;9.69;55.11;102052.44;5123234;28;20089;-83
2022/04/30 03:35:44;;;;;;;0.93;0.93;;;;;;;9.64;56.10;102064.66;5119596;28;20042;-80
2022/04/30 03:38:17;;;;;;;0.85;0.85;;;;;;;9.58;55.98;102055.06;5108885;28;20050;-81
2022/04/30 03:40:48;;;;;;;0.73;0.73;;;;;;;9.63;55.76;102055.03;5131128;28;20039;-80
2022/04/30 03:43:19;;;;;;;1.77;0.93;;;;;;;9.45;56.97;102051.59;5129125;28;20051;-82
2022/04/30 03:45:49;;;;;;;0.63;0.63;;;;;;;9.61;55.52;102059.44;5151437;28;20026;-82
2022/04/30 03:48:20;;;;;;;0.50;0.50;;;;;;;9.59;55.16;102058.56;5116762;28;20129;-81
2022/04/30 03:50:52;;;;;;;1.55;1.45;;;;;;;9.52;56.41;102047.19;5133884;28;20026;-80
2022/04/30 03:53:25;;;;;;;3.45;1.23;;;;;;;9.54;55.34;102050.69;5135196;28;20065;-81
2022/04/30 03:55:57;;;;;;;0.75;0.75;;;;;;;9.54;55.15;102052.47;5118898;28;20386;-81
2022/04/30 03:58:27;;;;;;;0.50;0.50;;;;;;;9.51;55.65;102053.31;5132462;28;20073;-81
2022/04/30 04:00:58;;;;;;;0.90;0.90;;;;;;;9.22;57.03;102051.59;5132273;28;20023;-81
2022/04/30 04:03:28;;;;;;;0.93;0.93;;;;;;;9.22;56.92;102058.56;5133392;28;20565;-82
2022/04/30 04:05:59;;;;;;;0.77;0.77;;;;;;;9.26;56.56;102058.56;5117199;28;20026;-80
2022/04/30 04:08:30;;;;;;;0.40;0.40;;;;;;;9.36;56.52;102056.84;5117254;28;20089;-80
2022/04/30 04:11:04;;;;;;;0.40;0.40;;;;;;;9.42;56.31;102062.06;5134150;28;20026;-81
2022/04/30 04:19:13;;;;;;;0.45;0.45;;;;;;;9.47;55.36;102063.78;5134285;28;20039;-81
2022/04/30 04:21:44;;;;;;;0.65;0.65;;;;;;;9.16;58.81;102075.19;5131001;28;20023;-80
2022/04/30 04:27:04;;;;;;;1.63;1.52;;;;;;;9.38;56.38;102067.31;5154163;28;20431;-81
2022/04/30 04:29:35;;;;;;;0.63;0.63;;;;;;;9.39;55.84;102077.78;5117795;28;20066;-82
2022/04/30 04:32:06;;;;;;;0.93;0.93;;;;;;;9.18;56.58;102068.16;5153850;28;20113;-80
2022/04/30 04:34:36;;;;;;;1.40;1.08;;;;;;;9.20;56.90;102074.28;5120488;28;20427;-82
2022/04/30 04:37:07;;;;;;;0.55;0.55;;;;;;;9.22;57.31;102072.56;5145235;28;20030;-82
2022/04/30 04:39:38;;;;;;;1.55;1.38;;;;;;;9.28;56.30;102075.16;5151806;28;20282;-81
2022/04/30 04:42:09;;;;;;;0.47;0.47;;;;;;;9.26;56.32;102078.66;5138264;28;20022;-81
2022/04/30 04:44:39;;;;;;;0.50;0.50;;;;;;;9.16;56.68;102085.66;5118678;28;20596;-80
2022/04/30 04:47:10;;;;;;;1.20;1.08;;;;;;;9.36;56.31;102083.03;5131756;28;20053;-79
2022/04/30 04:49:42;;;;;;;0.82;0.82;;;;;;;9.25;55.92;102082.16;5128547;28;20038;-82
2022/04/30 04:52:13;;;;;;;1.00;1.00;;;;;;;9.21;56.15;102083.91;5132368;28;20211;-82
2022/04/30 04:54:43;;;;;;;0.68;0.68;;;;;;;8.96;58.76;102088.25;5146182;28;20035;-80
2022/04/30 04:57:15;;;;;;;0.50;0.50;;;;;;;9.18;56.75;102088.25;5122392;28;20038;-81
2022/04/30 04:59:45;;;;;;;0.30;0.30;;;;;;;9.21;56.65;102093.50;5134627;28;20340;-82
2022/04/30 05:02:16;;;;;;;0.95;0.95;;;;;;;9.20;56.25;102092.63;5137672;28;20092;-81
2022/04/30 05:04:47;;;;;;;1.17;1.10;;;;;;;9.22;56.50;102092.63;5118989;28;20042;-81
2022/04/30 05:07:18;;;;;;;0.80;0.80;;;;;;;9.23;56.25;102094.38;5125664;28;20010;-83
2022/04/30 05:09:49;;;;;;;0.82;0.82;;;;;;;9.20;56.86;102102.25;5137931;28;20023;-83
2022/04/30 05:12:29;;;;;;;;;;;;;;;;;;;;;
2022/04/30 05:15:00;;;;;;;0.73;0.73;;;;;;;8.98;57.74;102102.19;5130645;28;20084;-83
2022/04/30 05:17:32;;;;;;;0.98;0.98;;;;;;;9.09;56.46;102110.09;5141668;28;20533;-81
2022/04/30 05:20:09;;;;;;;0.60;0.60;;;;;;;9.08;56.81;102118.81;5132540;28;20054;-81
2022/04/30 05:22:47;;;;;;;0.65;0.60;;;;;;;9.09;56.63;102110.94;5154083;28;20034;-82
2022/04/30 05:25:17;;;;;;;1.15;1.10;;;;;;;9.08;57.29;102117.06;5119407;28;20042;-84
2022/04/30 05:27:48;;;;;;;1.58;0.88;;;;;;;9.11;56.47;102116.19;5128762;28;20041;-81
2022/04/30 05:30:18;;;;;;;0.85;0.85;;;;;;;9.03;57.29;102118.81;5154800;28;20035;-81
2022/04/30 05:32:49;;;;;;;0.50;0.50;;;;;;;9.03;57.29;102116.19;5134476;28;20031;-80
2022/04/30 05:35:20;;;;;;;0.60;0.60;;;;;;;9.01;57.47;102115.31;5133925;28;20050;-82
2022/04/30 05:37:50;;;;;;;0.43;0.43;;;;;;;8.90;59.47;102117.00;5118632;28;20014;-81
2022/04/30 05:40:21;;;;;;;0.88;0.85;;;;;;;9.07;58.89;102115.31;5133463;28;20517;-80
2022/04/30 05:42:51;;;;;;;0.52;0.52;;;;;;;8.92;58.27;102123.13;5137743;28;20034;-81
2022/04/30 05:45:25;;;;;;;0.70;0.70;;;;;;;9.00;58.10;102120.53;5116283;28;20042;-81
2022/04/30 05:47:56;;;;;;;2.30;0.77;;;;;;;9.08;59.80;102119.66;5144859;28;20126;-83
2022/04/30 05:50:26;;;;;;;0.98;0.98;;;;;;;8.96;60.38;102122.28;5160130;28;20069;-81
2022/04/30 05:52:57;;;;;;;1.20;0.45;;;;;;;8.62;63.09;102130.03;5143925;28;20062;-82
2022/04/30 05:55:28;;;;;;;0.65;0.65;;;;;;;8.81;60.74;102121.34;5128532;28;20033;-83
2022/04/30 05:57:59;;;;;;;17.33;1.25;;;;;;;8.31;63.73;102125.50;5126103;28;20099;-81
2022/04/30 06:00:29;;;;;;;0.65;0.65;;;;;;;8.74;61.33;102126.59;5156977;28;20054;-83
2022/04/30 06:03:00;;;;;;;0.85;0.75;;;;;;;8.79;61.64;102128.34;5154885;28;20031;-80
2022/04/30 06:05:31;;;;;;;1.85;1.75;;;;;;;8.52;62.71;102134.34;5133059;28;20019;-81
2022/04/30 06:08:01;;;;;;;0.75;0.70;;;;;;;8.47;62.53;102128.22;5123695;28;20022;-82
2022/04/30 06:10:35;;;;;;;0.60;0.60;;;;;;;8.57;61.80;102131.75;5127461;28;20034;-80
2022/04/30 06:13:14;;;;;;;0.73;0.73;;;;;;;8.56;63.59;102132.59;5142655;28;20062;-79
2022/04/30 06:15:45;;;;;;;0.38;0.38;;;;;;;8.36;63.78;102133.38;5115132;28;20030;-79
2022/04/30 06:18:20;;;;;;;1.17;1.00;;;;;;;8.56;62.12;102143.97;5130602;28;20539;-80
2022/04/30 06:20:50;;;;;;;0.40;0.40;;;;;;;8.61;62.08;102133.50;5130340;28;20037;-80
2022/04/30 06:23:21;;;;;;;0.75;0.75;;;;;;;8.58;62.75;102138.72;5118374;28;20038;-80
2022/04/30 06:25:51;;;;;;;0.73;0.73;;;;;;;8.65;61.93;102132.63;5116185;28;20477;-80
2022/04/30 06:28:22;;;;;;;1.45;1.10;;;;;;;8.63;61.71;102134.41;5112492;28;20039;-80
2022/04/30 06:30:54;;;;;;;0.82;0.82;;;;;;;8.74;61.85;102139.66;5117116;28;20109;-79
2022/04/30 06:33:31;;;;;;;0.32;0.32;;;;;;;8.60;61.56;102142.22;5123383;28;20481;-80
2022/04/30 06:36:01;;;;;;;0.55;0.55;;;;;;;8.70;61.91;102149.25;5116273;28;20065;-80
2022/04/30 06:38:32;;;;;;;4.57;1.50;;;;;;;8.64;61.96;102146.59;5140447;28;20469;-80
2022/04/30 06:41:02;;;;;;;6.28;2.03;;;;;;;8.77;62.64;102148.41;5143821;28;20030;-81
2022/04/30 06:43:33;;;;;;;1.08;1.02;;;;;;;8.67;63.33;102144.00;5103261;28;20085;-80
2022/04/30 06:46:06;;;;;;;0.98;0.98;;;;;;;8.78;62.77;102147.53;5124079;28;20473;-79
2022/04/30 06:48:37;;;;;;;0.80;0.80;;;;;;;8.82;61.73;102144.03;5112680;28;20038;-80
2022/04/30 06:51:07;;;;;;;1.85;0.80;;;;;;;8.90;62.29;102146.69;5130769;28;20038;-80
2022/04/30 06:59:17;;;;;;;1.10;1.10;;;;;;;8.96;62.82;102146.69;5147133;28;20129;-80
2022/04/30 07:02:07;;;;;;;1.45;0.98;;;;;;;8.94;64.06;102137.09;5114628;28;20126;-81
2022/04/30 07:04:41;;;;;;;0.35;0.35;;;;;;;8.87;63.36;102140.56;5112403;28;20245;-80
2022/04/30 07:07:12;;;;;;;0.80;0.80;;;;;;;9.06;63.07;102144.09;5145512;28;20062;-80
2022/04/30 07:09:43;;;;;;;0.82;0.82;;;;;;;9.02;64.94;102134.47;5123100;28;20958;-81
2022/04/30 07:12:14;;;;;;;1.05;1.05;;;;;;;9.16;63.23;102140.66;5141155;28;20237;-82
2022/04/30 07:14:49;;;;;;;0.85;0.85;;;;;;;9.20;63.48;102145.00;5104225;28;20038;-81
2022/04/30 07:17:19;;;;;;;0.73;0.73;;;;;;;9.09;63.57;102145.00;5107482;28;20031;-80
2022/04/30 07:19:50;;;;;;;0.82;0.82;;;;;;;9.17;63.65;102144.13;5151343;28;20178;-81
2022/04/30 07:22:25;;;;;;;1.45;1.38;;;;;;;9.39;62.33;102156.38;5134423;28;20324;-80
2022/04/30 07:24:59;;;;;;;0.95;0.95;;;;;;;9.51;62.21;102146.78;5132541;28;20515;-80
2022/04/30 07:27:29;;;;;;;0.82;0.82;;;;;;;9.57;61.67;102150.28;5130383;28;20175;-81
2022/04/30 07:30:07;;;;;;;1.17;1.10;;;;;;;9.62;62.01;102142.44;5142863;28;20034;-80
2022/04/30 07:32:40;;;;;;;1.17;1.08;;;;;;;9.64;62.05;102143.28;5113384;28;20355;-80
2022/04/30 07:35:11;;;;;;;5.07;1.98;;;;;;;9.57;63.03;102150.28;5130066;28;20069;-80
2022/04/30 07:37:42;;;;;;;2.22;2.13;;;;;;;9.58;62.64;102149.41;5109938;28;20337;-81
2022/04/30 07:40:15;;;;;;;0.77;0.77;;;;;;;9.59;62.88;102139.78;5106431;28;20043;-80
2022/04/30 07:42:46;;;;;;;;;;;;;;;9.81;61.13;102142.38;5127741;28;20425;-80
2022/04/30 07:45:16;;;;;;;1.02;1.02;;;;;;;9.64;61.96;102131.94;5144018;28;19924;-81
2022/04/30 07:47:48;;;;;;;2.70;1.92;;;;;;;9.55;62.40;102135.41;5108375;28;20113;-81
2022/04/30 07:50:18;;;;;;;0.30;0.30;;;;;;;9.70;61.67;102137.16;5115575;28;20038;-82
2022/04/30 07:52:49;;;;;;;1.48;1.40;;;;;;;9.83;60.82;102132.78;5114940;28;20430;-80
2022/04/30 07:55:20;;;;;;;0.77;0.77;;;;;;;9.89;60.39;102127.53;5115582;28;20118;-79
2022/04/30 07:57:53;;;;;;;0.40;0.40;;;;;;;9.93;60.81;102137.16;5142785;28;20126;-81
2022/04/30 08:00:26;;;;;;;2.85;0.98;;;;;;;9.90;61.31;102137.13;5124092;28;20041;-81
2022/04/30 08:02:57;;;;;;;;;;;;;;;9.83;62.30;102130.16;5134264;28;20537;-81
2022/04/30 08:05:30;;;;;;;1.20;1.17;;;;;;;10.05;61.25;102131.00;5120407;28;19913;-83
2022/04/30 08:08:01;;;;;;;0.47;0.47;;;;;;;10.18;60.49;102130.06;5102190;28;20121;-81
2022/04/30 08:10:34;;;;;;;0.85;0.85;;;;;;;10.08;60.83;102131.88;5132854;28;20058;-80
2022/04/30 08:13:06;;;;;;;0.75;0.75;;;;;;;10.16;60.92;102134.47;5120023;28;20050;-82
2022/04/30 08:15:43;;;;;;;1.63;0.90;;;;;;;10.11;61.51;102133.59;5121346;28;20038;-81
2022/04/30 08:18:14;;;;;;;0.63;0.63;;;;;;;10.23;60.27;102130.06;5110827;28;20027;-81
2022/04/30 08:20:46;;;;;;;3.20;1.40;;;;;;;10.15;61.02;102130.09;5129963;28;20050;-80
2022/04/30 08:23:18;;;;;;;0.80;0.80;;;;;;;10.26;59.99;102132.69;5108207;28;20049;-80
2022/04/30 08:25:48;;;;;;;0.68;0.68;;;;;;;10.19;60.57;102130.97;5132235;28;20132;-81
2022/04/30 08:28:22;;;;;;;1.58;1.48;;;;;;;10.45;59.49;102132.66;5116816;28;20613;-81
2022/04/30 08:30:52;;;;;;;0.60;0.60;;;;;;;10.27;60.02;102128.31;5119585;28;20030;-81
2022/04/30 08:33:23;;;;;;;4.55;2.00;;;;;;;10.27;59.06;102131.81;5134756;28;20112;-81
2022/04/30 08:35:55;;;;;;;0.50;0.50;;;;;;;10.28;57.46;102130.94;5149911;28;20113;-83
2022/04/30 08:38:26;;;;;;;0.60;0.60;;;;;;;10.30;57.53;102123.06;5149597;28;20042;-82
2022/04/30 08:40:57;;;;;;;1.42;1.33;;;;;;;10.16;57.42;102125.72;5129526;28;20033;-81
2022/04/30 08:43:28;;;;;;;0.65;0.63;;;;;;;10.11;56.71;102128.34;5140067;28;20557;-83
2022/04/30 08:46:09;;;;;;;0.40;0.40;;;;;;;10.22;57.67;102123.06;5122484;28;20489;-83
2022/04/30 08:48:45;;;;;;;0.30;0.30;;;;;;;10.35;57.87;102130.03;5142288;28;20042;-84
2022/04/30 08:51:16;;;;;;;0.85;0.85;;;;;;;10.45;56.26;102124.78;5145089;28;20131;-83
2022/04/30 08:53:47;;;;;;;1.85;0.85;;;;;;;10.32;56.12;102127.41;5129099;28;20105;-82
2022/04/30 08:56:18;;;;;;;0.60;0.60;;;;;;;10.38;56.09;102124.78;5160901;28;20026;-82
2022/04/30 08:58:48;;;;;;;0.50;0.50;;;;;;;10.37;55.47;102120.41;5143747;28;20068;-83
2022/04/30 09:01:19;;;;;;;0.50;0.50;;;;;;;10.56;55.65;102122.97;5142066;28;20035;-83
2022/04/30 09:03:55;;;;;;;0.40;0.40;;;;;;;10.50;54.14;102115.13;5140876;28;20050;-81
2022/04/30 09:06:26;;;;;;;0.70;0.70;;;;;;;10.55;55.36;102115.97;5123297;28;20023;-81
2022/04/30 09:08:56;;;;;;;3.08;1.88;;;;;;;10.59;55.55;102119.47;5121537;28;20030;-81
2022/04/30 09:11:27;;;;;;;1.35;0.65;;;;;;;10.64;55.29;102115.09;5157578;28;20129;-83
2022/04/30 09:14:03;;;;;;;0.40;0.40;;;;;;;10.75;55.04;102109.78;5136176;28;20053;-82
2022/04/30 09:16:33;;;;;;;0.70;0.70;;;;;;;10.67;55.32;102115.94;5122650;28;20033;-81
2022/04/30 09:19:04;;;;;;;0.52;0.52;;;;;;;10.66;54.46;102108.94;5108524;28;20504;-81
2022/04/30 09:21:36;;;;;;;0.40;0.40;;;;;;;10.69;54.55;102111.56;5134416;28;20038;-82
2022/04/30 09:24:07;;;;;;;1.75;1.25;;;;;;;10.81;54.47;102112.34;5134232;28;20559;-81
2022/04/30 09:26:39;;;;;;;0.40;0.40;;;;;;;10.83;54.55;102105.34;5133176;28;20467;-82
2022/04/30 09:29:23;;;;;;;0.80;0.80;;;;;;;10.90;54.76;102096.53;5133057;28;20034;-81
2022/04/30 09:31:53;;;;;;;0.55;0.55;;;;;;;10.95;54.10;102105.25;5170843;28;20094;-83
2022/04/30 09:40:16;;;;;;;0.95;0.93;;;;;;;10.86;52.22;102100.94;5134839;28;20533;-81
2022/04/30 09:42:47;;;;;;;1.08;1.08;;;;;;;10.87;52.25;102093.94;5124402;28;20038;-82
2022/04/30 09:45:32;;;;;;;0.63;0.63;;;;;;;10.86;51.91;102086.97;5143855;28;20406;-84
2022/04/30 09:53:57;;;;;;;1.35;1.25;;;;;;;11.03;51.04;102087.69;5136369;28;20038;-84
2022/04/30 09:56:37;;;;;;;0.77;0.77;;;;;;;11.10;51.42;102079.78;5137683;28;20037;-81
2022/04/30 09:59:11;;;;;;;0.50;0.50;;;;;;;11.32;50.17;102085.75;5120163;28;20041;-83
2022/04/30 10:01:44;;;;;;;0.82;0.82;;;;;;;11.21;51.33;102077.94;5133426;28;20213;-82
2022/04/30 10:04:18;;;;;;;0.55;0.55;;;;;;;11.12;50.60;102080.63;5149716;28;20046;-81
2022/04/30 10:06:51;;;;;;;0.60;0.60;;;;;;;11.21;50.85;102067.41;5153023;28;20030;-81
2022/04/30 10:09:34;;;;;;;0.65;0.65;;;;;;;11.30;51.16;102069.97;5128000;28;20045;-82
2022/04/30 10:12:31;;;;;;;0.55;0.55;;;;;;;11.51;50.89;102078.56;5132309;28;20429;-82
2022/04/30 10:15:14;;;;;;;0.40;0.40;;;;;;;11.49;51.14;102075.94;5114396;28;20037;-82
2022/04/30 10:17:48;;;;;;;0.47;0.47;;;;;;;11.54;50.79;102073.25;5134500;28;20274;-81
2022/04/30 10:20:40;;;;;;;1.30;1.30;;;;;;;11.61;51.29;102063.56;5144615;28;20792;-81
2022/04/30 10:23:16;;;;;;;0.60;0.60;;;;;;;11.68;51.39;102059.13;5139092;28;20030;-81
2022/04/30 10:25:48;;;;;;;1.48;1.10;;;;;;;11.88;50.42;102062.41;5149252;28;20057;-82
2022/04/30 10:28:23;;;;;;;0.47;0.47;;;;;;;11.87;50.23;102068.53;5122220;28;20113;-81
2022/04/30 10:31:17;;;;;;;0.88;0.88;;;;;;;11.89;50.19;102058.91;5151949;28;20157;-82
2022/04/30 10:33:52;;;;;;;;;;;;;;;11.75;50.54;102056.41;5122590;28;20127;-83
2022/04/30 10:36:32;;;;;;;0.40;0.40;;;;;;;11.82;51.30;102059.84;5133791;28;20072;-83
2022/04/30 10:39:04;;;;;;;0.40;0.40;;;;;;;11.97;49.40;102058.84;5149211;28;20042;-82
2022/04/30 10:41:50;;;;;;;0.40;0.40;;;;;;;11.86;49.05;102053.66;5122919;28;20058;-82
2022/04/30 10:44:29;;;;;;;0.35;0.35;;;;;;;12.11;49.13;102049.03;5118375;28;20049;-82
2022/04/30 10:47:17;;;;;;;25.65;1.52;;;;;;;11.98;48.52;102047.44;5151449;28;20038;-82
2022/04/30 10:49:49;;;;;;;0.93;0.93;;;;;;;12.04;49.09;102041.22;5134840;28;20469;-83
2022/04/30 10:52:28;;;;;;;0.68;0.68;;;;;;;12.10;48.71;102043.78;5118543;28;20138;-83
2022/04/30 10:55:02;;;;;;;0.40;0.40;;;;;;;12.15;48.77;102034.06;5136119;28;20099;-83
2022/04/30 10:57:43;;;;;;;0.75;0.75;;;;;;;12.35;48.50;102027.69;5117088;28;20023;-81
2022/04/30 11:00:15;;;;;;;2.60;1.33;;;;;;;12.50;49.04;102034.47;5116619;28;20042;-84
2022/04/30 11:02:46;;;;;;;0.30;0.30;;;;;;;12.56;48.94;102024.75;5109171;28;20034;-83
2022/04/30 11:05:19;;;;;;;2.20;1.05;;;;;;;12.74;48.62;102033.28;5121016;28;20285;-81
2022/04/30 11:07:50;;;;;;;0.68;0.68;;;;;;;12.53;47.94;102034.44;5143928;28;20366;-82
2022/04/30 11:10:26;;;;;;;0.25;0.25;;;;;;;12.54;48.53;102030.94;5136253;28;20069;-82
2022/04/30 11:13:06;;;;;;;0.57;0.57;;;;;;;12.72;47.81;102028.03;5119946;28;20031;-83
2022/04/30 11:15:37;;;;;;;0.55;0.55;;;;;;;12.80;48.17;102020.00;5140068;28;20774;-82
2022/04/30 11:18:07;;;;;;;0.50;0.50;;;;;;;12.74;47.31;102030.63;5119801;28;20057;-82
2022/04/30 11:20:38;;;;;;;0.52;0.52;;;;;;;12.81;47.35;102021.75;5118447;28;20028;-82
2022/04/30 11:23:09;;;;;;;0.40;0.40;;;;;;;13.03;47.91;102024.00;5151828;28;20310;-81
2022/04/30 11:25:39;;;;;;;1.27;1.15;;;;;;;12.89;46.78;102014.59;5141964;28;20057;-83
2022/04/30 11:28:13;;;;;;;0.90;0.90;;;;;;;12.93;48.27;102011.91;5136962;28;20057;-83
2022/04/30 11:30:45;;;;;;;1.65;0.80;;;;;;;12.88;47.00;102004.94;5120209;28;20026;-82
2022/04/30 11:33:16;;;;;;;0.53;0.53;;;;;;;13.01;47.09;102010.03;5118914;28;20485;-81
2022/04/30 11:35:54;;;;;;;0.73;0.73;;;;;;;13.03;45.49;101997.66;5137612;28;20620;-82
2022/04/30 11:38:24;;;;;;;3.47;0.95;;;;;;;12.99;45.13;101998.63;5119295;28;20085;-84
2022/04/30 11:41:03;;;;;;;0.85;0.77;;;;;;;13.18;45.94;102000.03;5137349;28;20026;-83
2022/04/30 11:43:36;;;;;;;0.35;0.35;;;;;;;13.32;45.97;101996.31;5119921;28;20114;-83
2022/04/30 11:46:06;;;;;;;0.73;0.73;;;;;;;13.32;45.96;101996.31;5133075;28;20031;-83
2022/04/30 11:48:39;;;;;;;0.60;0.60;;;;;;;13.34;44.88;101983.97;5115316;28;20093;-83
2022/04/30 11:51:10;;;;;;;0.60;0.60;;;;;;;13.48;45.01;101974.06;5113466;28;20018;-80
2022/04/30 11:53:41;;;;;;;0.70;0.70;;;;;;;13.59;45.76;101986.19;5118558;28;20691;-82
2022/04/30 11:56:12;;;;;;;0.52;0.52;;;;;;;13.51;44.72;101981.91;5137566;28;20033;-80
2022/04/30 11:58:43;;;;;;;1.15;1.05;;;;;;;13.69;44.16;101980.69;5115492;28;20050;-80
2022/04/30 12:01:22;;;;;;;0.50;0.50;;;;;;;13.84;45.07;101974.22;5158011;28;20458;-82
2022/04/30 12:04:08;;;;;;;0.57;0.57;;;;;;;13.87;44.98;101975.06;5121274;28;20109;-80
2022/04/30 12:06:45;;;;;;;0.28;0.28;;;;;;;13.83;44.36;101975.13;5123455;28;20125;-81
2022/04/30 12:09:17;;;;;;;0.30;0.30;;;;;;;13.89;44.37;101976.75;5121691;28;20053;-83
2022/04/30 12:11:53;;;;;;;0.73;0.73;;;;;;;13.92;44.01;101967.94;5130059;28;20018;-84
2022/04/30 12:14:24;;;;;;;0.30;0.30;;;;;;;13.87;43.23;101975.06;5132467;28;20034;-83
2022/04/30 12:16:57;;;;;;;0.50;0.50;;;;;;;14.08;41.43;101974.63;5127632;28;20401;-81
2022/04/30 12:25:17;;;;;;;0.80;0.80;;;;;;;14.08;41.98;101964.06;5131539;28;20575;-82
2022/04/30 12:28:04;;;;;;;0.40;0.40;;;;;;;14.39;42.04;101955.44;5116402;28;20663;-83
2022/04/30 12:30:35;;;;;;;0.80;0.80;;;;;;;14.38;41.30;101952.84;5119188;28;20042;-82
2022/04/30 12:33:06;;;;;;;1.30;1.20;;;;;;;14.25;40.97;101950.47;5122397;28;20033;-80
2022/04/30 12:35:38;;;;;;;0.30;0.30;;;;;;;14.44;41.95;101950.06;5128122;28;20680;-83
2022/04/30 12:38:09;;;;;;;0.60;0.60;;;;;;;14.54;41.35;101942.75;5146860;28;20037;-82
2022/04/30 12:40:45;;;;;;;0.20;0.20;;;;;;;14.73;41.02;101954.66;5142208;28;20065;-83